sensor_id;sensor_type;location;lat;lon;timestamp;P1;durP1;ratioP1;P2;durP2;ratioP2
4208;SDS011;36320;48.860;2.380;2022-07-23T00:00:18;15.80;;;4.77;;
4208;SDS011;36320;48.860;2.380;2022-07-23T00:02:45;21.33;;;5.15;;
4208;SDS011;36320;48.860;2.380;2022-07-23T00:05:10;15.20;;;5.20;;
4208;SDS011;36320;48.860;2.380;2022-07-23T00:07:36;16.20;;;5.15;;
4208;SDS011;36320;48.860;2.380;2022-07-23T00:10:03;15.85;;;4.82;;
4208;SDS011;36320;48.860;2.380;2022-07-23T00:12:29;15.77;;;4.88;;
4208;SDS011;36320;48.860;2.380;2022-07-23T00:14:56;16.50;;;5.37;;
4208;SDS011;36320;48.860;2.380;2022-07-23T00:17:22;14.77;;;4.75;;
4208;SDS011;36320;48.860;2.380;2022-07-23T00:19:48;16.63;;;4.90;;
4208;SDS011;36320;48.860;2.380;2022-07-23T00:22:13;17.70;;;4.37;;
4208;SDS011;36320;48.860;2.380;2022-07-23T00:24:39;15.10;;;4.63;;
4208;SDS011;36320;48.860;2.380;2022-07-23T00:27:05;16.60;;;4.68;;
4208;SDS011;36320;48.860;2.380;2022-07-23T00:29:31;14.52;;;4.55;;
4208;SDS011;36320;48.860;2.380;2022-07-23T00:31:56;14.53;;;4.70;;
4208;SDS011;36320;48.860;2.380;2022-07-23T00:34:22;17.47;;;4.40;;
4208;SDS011;36320;48.860;2.380;2022-07-23T00:36:48;15.75;;;4.20;;
4208;SDS011;36320;48.860;2.380;2022-07-23T00:39:13;14.15;;;4.40;;
4208;SDS011;36320;48.860;2.380;2022-07-23T00:41:39;14.05;;;4.60;;
4208;SDS011;36320;48.860;2.380;2022-07-23T00:44:21;13.93;;;5.10;;
4208;SDS011;36320;48.860;2.380;2022-07-23T00:46:55;16.63;;;5.35;;
4208;SDS011;36320;48.860;2.380;2022-07-23T00:49:24;16.60;;;4.90;;
4208;SDS011;36320;48.860;2.380;2022-07-23T00:51:52;16.17;;;4.30;;
4208;SDS011;36320;48.860;2.380;2022-07-23T00:54:19;12.87;;;4.67;;
4208;SDS011;36320;48.860;2.380;2022-07-23T00:56:46;17.13;;;4.90;;
4208;SDS011;36320;48.860;2.380;2022-07-23T00:59:13;15.60;;;5.30;;
4208;SDS011;36320;48.860;2.380;2022-07-23T01:01:39;13.00;;;4.43;;
4208;SDS011;36320;48.860;2.380;2022-07-23T01:04:05;18.05;;;5.72;;
4208;SDS011;36320;48.860;2.380;2022-07-23T01:06:34;14.00;;;4.15;;
4208;SDS011;36320;48.860;2.380;2022-07-23T01:09:02;14.55;;;4.53;;
4208;SDS011;36320;48.860;2.380;2022-07-23T01:11:35;16.25;;;5.30;;
4208;SDS011;36320;48.860;2.380;2022-07-23T01:14:12;16.23;;;5.63;;
4208;SDS011;36320;48.860;2.380;2022-07-23T01:16:39;16.45;;;4.80;;
4208;SDS011;36320;48.860;2.380;2022-07-23T01:19:06;14.75;;;4.80;;
4208;SDS011;36320;48.860;2.380;2022-07-23T01:21:36;20.35;;;5.00;;
4208;SDS011;36320;48.860;2.380;2022-07-23T01:24:03;16.75;;;4.60;;
4208;SDS011;36320;48.860;2.380;2022-07-23T01:26:30;13.43;;;4.63;;
4208;SDS011;36320;48.860;2.380;2022-07-23T01:28:55;13.65;;;4.28;;
4208;SDS011;36320;48.860;2.380;2022-07-23T01:31:21;20.65;;;6.32;;
4208;SDS011;36320;48.860;2.380;2022-07-23T01:33:47;14.73;;;4.13;;
4208;SDS011;36320;48.860;2.380;2022-07-23T01:36:14;22.00;;;5.80;;
4208;SDS011;36320;48.860;2.380;2022-07-23T01:38:40;17.77;;;5.70;;
4208;SDS011;36320;48.860;2.380;2022-07-23T01:41:06;15.05;;;5.43;;
4208;SDS011;36320;48.860;2.380;2022-07-23T01:43:31;25.85;;;5.35;;
4208;SDS011;36320;48.860;2.380;2022-07-23T01:46:00;15.20;;;4.85;;
4208;SDS011;36320;48.860;2.380;2022-07-23T01:48:25;15.35;;;5.05;;
4208;SDS011;36320;48.860;2.380;2022-07-23T01:50:51;25.70;;;4.90;;
4208;SDS011;36320;48.860;2.380;2022-07-23T01:53:17;18.10;;;4.97;;
4208;SDS011;36320;48.860;2.380;2022-07-23T01:55:43;18.70;;;5.77;;
4208;SDS011;36320;48.860;2.380;2022-07-23T01:58:10;15.35;;;5.30;;
4208;SDS011;36320;48.860;2.380;2022-07-23T02:00:35;18.97;;;4.80;;
4208;SDS011;36320;48.860;2.380;2022-07-23T02:03:01;15.20;;;5.32;;
4208;SDS011;36320;48.860;2.380;2022-07-23T02:05:28;16.05;;;4.85;;
4208;SDS011;36320;48.860;2.380;2022-07-23T02:07:55;16.67;;;5.68;;
4208;SDS011;36320;48.860;2.380;2022-07-23T02:10:21;14.10;;;5.03;;
4208;SDS011;36320;48.860;2.380;2022-07-23T02:12:46;16.00;;;5.20;;
4208;SDS011;36320;48.860;2.380;2022-07-23T02:15:12;14.27;;;4.90;;
4208;SDS011;36320;48.860;2.380;2022-07-23T02:17:38;13.53;;;4.77;;
4208;SDS011;36320;48.860;2.380;2022-07-23T02:20:04;15.90;;;5.20;;
4208;SDS011;36320;48.860;2.380;2022-07-23T02:22:31;17.73;;;4.90;;
4208;SDS011;36320;48.860;2.380;2022-07-23T02:24:57;17.95;;;5.38;;
4208;SDS011;36320;48.860;2.380;2022-07-23T02:27:23;18.38;;;5.25;;
4208;SDS011;36320;48.860;2.380;2022-07-23T02:29:49;14.80;;;4.30;;
4208;SDS011;36320;48.860;2.380;2022-07-23T02:32:14;19.95;;;5.38;;
4208;SDS011;36320;48.860;2.380;2022-07-23T02:34:40;17.40;;;5.80;;
4208;SDS011;36320;48.860;2.380;2022-07-23T02:37:06;18.17;;;5.15;;
4208;SDS011;36320;48.860;2.380;2022-07-23T02:39:33;15.50;;;4.75;;
4208;SDS011;36320;48.860;2.380;2022-07-23T02:42:00;14.48;;;5.10;;
4208;SDS011;36320;48.860;2.380;2022-07-23T02:44:26;20.08;;;5.45;;
4208;SDS011;36320;48.860;2.380;2022-07-23T02:46:52;17.17;;;5.13;;
4208;SDS011;36320;48.860;2.380;2022-07-23T02:49:17;12.87;;;4.87;;
4208;SDS011;36320;48.860;2.380;2022-07-23T02:51:43;15.57;;;5.40;;
4208;SDS011;36320;48.860;2.380;2022-07-23T02:54:09;18.88;;;5.95;;
4208;SDS011;36320;48.860;2.380;2022-07-23T02:56:35;15.17;;;5.67;;
4208;SDS011;36320;48.860;2.380;2022-07-23T02:59:00;20.63;;;6.17;;
4208;SDS011;36320;48.860;2.380;2022-07-23T03:01:26;20.90;;;6.00;;
4208;SDS011;36320;48.860;2.380;2022-07-23T03:03:53;18.75;;;6.47;;
4208;SDS011;36320;48.860;2.380;2022-07-23T03:06:18;14.85;;;5.28;;
4208;SDS011;36320;48.860;2.380;2022-07-23T03:08:47;16.30;;;5.20;;
4208;SDS011;36320;48.860;2.380;2022-07-23T03:11:13;16.60;;;5.33;;
4208;SDS011;36320;48.860;2.380;2022-07-23T03:13:39;18.48;;;6.10;;
4208;SDS011;36320;48.860;2.380;2022-07-23T03:16:05;16.60;;;4.70;;
4208;SDS011;36320;48.860;2.380;2022-07-23T03:18:32;16.25;;;4.72;;
4208;SDS011;36320;48.860;2.380;2022-07-23T03:20:58;15.52;;;5.20;;
4208;SDS011;36320;48.860;2.380;2022-07-23T03:23:24;14.23;;;4.90;;
4208;SDS011;36320;48.860;2.380;2022-07-23T03:25:50;15.47;;;4.70;;
4208;SDS011;36320;48.860;2.380;2022-07-23T03:28:16;14.90;;;3.92;;
4208;SDS011;36320;48.860;2.380;2022-07-23T03:30:43;17.27;;;5.80;;
4208;SDS011;36320;48.860;2.380;2022-07-23T03:33:11;16.35;;;5.00;;
4208;SDS011;36320;48.860;2.380;2022-07-23T03:35:41;14.45;;;5.00;;
4208;SDS011;36320;48.860;2.380;2022-07-23T03:38:07;18.23;;;5.47;;
4208;SDS011;36320;48.860;2.380;2022-07-23T03:40:33;16.27;;;6.23;;
4208;SDS011;36320;48.860;2.380;2022-07-23T03:42:59;17.00;;;5.90;;
4208;SDS011;36320;48.860;2.380;2022-07-23T03:45:25;19.77;;;5.63;;
4208;SDS011;36320;48.860;2.380;2022-07-23T03:47:51;16.35;;;4.80;;
4208;SDS011;36320;48.860;2.380;2022-07-23T03:50:17;19.00;;;5.53;;
4208;SDS011;36320;48.860;2.380;2022-07-23T03:52:42;21.13;;;4.53;;
4208;SDS011;36320;48.860;2.380;2022-07-23T03:55:08;22.70;;;4.87;;
4208;SDS011;36320;48.860;2.380;2022-07-23T03:57:34;13.67;;;4.60;;
4208;SDS011;36320;48.860;2.380;2022-07-23T04:00:00;18.30;;;4.70;;
4208;SDS011;36320;48.860;2.380;2022-07-23T04:02:26;16.00;;;5.70;;
4208;SDS011;36320;48.860;2.380;2022-07-23T04:04:53;13.40;;;4.40;;
4208;SDS011;36320;48.860;2.380;2022-07-23T04:07:19;15.98;;;5.05;;
4208;SDS011;36320;48.860;2.380;2022-07-23T04:09:44;18.37;;;4.77;;
4208;SDS011;36320;48.860;2.380;2022-07-23T04:12:10;14.93;;;4.80;;
4208;SDS011;36320;48.860;2.380;2022-07-23T04:14:36;17.27;;;4.50;;
4208;SDS011;36320;48.860;2.380;2022-07-23T04:17:02;16.50;;;4.23;;
4208;SDS011;36320;48.860;2.380;2022-07-23T04:19:27;15.77;;;4.57;;
4208;SDS011;36320;48.860;2.380;2022-07-23T04:21:55;17.30;;;5.03;;
4208;SDS011;36320;48.860;2.380;2022-07-23T04:24:21;15.07;;;4.00;;
4208;SDS011;36320;48.860;2.380;2022-07-23T04:26:46;16.93;;;5.13;;
4208;SDS011;36320;48.860;2.380;2022-07-23T04:29:12;15.17;;;4.80;;
4208;SDS011;36320;48.860;2.380;2022-07-23T04:31:38;17.20;;;4.32;;
4208;SDS011;36320;48.860;2.380;2022-07-23T04:34:04;13.20;;;4.30;;
4208;SDS011;36320;48.860;2.380;2022-07-23T04:36:30;18.60;;;4.80;;
4208;SDS011;36320;48.860;2.380;2022-07-23T04:38:55;16.63;;;5.78;;
4208;SDS011;36320;48.860;2.380;2022-07-23T04:41:21;22.10;;;6.40;;
4208;SDS011;36320;48.860;2.380;2022-07-23T04:43:47;29.40;;;7.70;;
4208;SDS011;36320;48.860;2.380;2022-07-23T04:46:12;21.50;;;7.50;;
4208;SDS011;36320;48.860;2.380;2022-07-23T04:48:38;16.95;;;6.22;;
4208;SDS011;36320;48.860;2.380;2022-07-23T04:51:04;15.03;;;5.10;;
4208;SDS011;36320;48.860;2.380;2022-07-23T04:53:30;15.52;;;4.32;;
4208;SDS011;36320;48.860;2.380;2022-07-23T04:55:57;24.80;;;5.47;;
4208;SDS011;36320;48.860;2.380;2022-07-23T04:58:23;12.98;;;4.13;;
4208;SDS011;36320;48.860;2.380;2022-07-23T05:00:49;19.85;;;4.80;;
4208;SDS011;36320;48.860;2.380;2022-07-23T05:03:15;15.97;;;4.33;;
4208;SDS011;36320;48.860;2.380;2022-07-23T05:05:40;14.05;;;3.97;;
4208;SDS011;36320;48.860;2.380;2022-07-23T05:08:06;19.23;;;4.20;;
4208;SDS011;36320;48.860;2.380;2022-07-23T05:10:31;15.02;;;4.65;;
4208;SDS011;36320;48.860;2.380;2022-07-23T05:12:57;14.57;;;4.00;;
4208;SDS011;36320;48.860;2.380;2022-07-23T05:15:23;11.67;;;3.80;;
4208;SDS011;36320;48.860;2.380;2022-07-23T05:17:49;17.60;;;4.40;;
4208;SDS011;36320;48.860;2.380;2022-07-23T05:20:14;16.48;;;4.50;;
4208;SDS011;36320;48.860;2.380;2022-07-23T05:22:40;13.37;;;4.13;;
4208;SDS011;36320;48.860;2.380;2022-07-23T05:25:06;14.38;;;4.13;;
4208;SDS011;36320;48.860;2.380;2022-07-23T05:27:34;16.85;;;4.63;;
4208;SDS011;36320;48.860;2.380;2022-07-23T05:30:02;21.45;;;4.60;;
4208;SDS011;36320;48.860;2.380;2022-07-23T05:32:30;18.63;;;4.50;;
4208;SDS011;36320;48.860;2.380;2022-07-23T05:34:57;13.80;;;3.80;;
4208;SDS011;36320;48.860;2.380;2022-07-23T05:37:22;17.00;;;3.83;;
4208;SDS011;36320;48.860;2.380;2022-07-23T05:39:48;17.90;;;3.90;;
4208;SDS011;36320;48.860;2.380;2022-07-23T05:42:14;14.20;;;4.00;;
4208;SDS011;36320;48.860;2.380;2022-07-23T05:44:40;13.57;;;3.58;;
4208;SDS011;36320;48.860;2.380;2022-07-23T05:47:06;14.53;;;3.43;;
4208;SDS011;36320;48.860;2.380;2022-07-23T05:49:31;17.63;;;4.17;;
4208;SDS011;36320;48.860;2.380;2022-07-23T05:51:57;15.63;;;4.70;;
4208;SDS011;36320;48.860;2.380;2022-07-23T05:54:23;19.10;;;4.60;;
4208;SDS011;36320;48.860;2.380;2022-07-23T05:56:49;12.13;;;4.40;;
4208;SDS011;36320;48.860;2.380;2022-07-23T05:59:15;12.90;;;4.30;;
4208;SDS011;36320;48.860;2.380;2022-07-23T06:01:41;11.97;;;4.33;;
4208;SDS011;36320;48.860;2.380;2022-07-23T06:04:07;15.75;;;4.40;;
4208;SDS011;36320;48.860;2.380;2022-07-23T06:06:33;15.40;;;5.13;;
4208;SDS011;36320;48.860;2.380;2022-07-23T06:08:58;14.60;;;4.20;;
4208;SDS011;36320;48.860;2.380;2022-07-23T06:11:24;21.27;;;5.10;;
4208;SDS011;36320;48.860;2.380;2022-07-23T06:13:50;17.17;;;6.00;;
4208;SDS011;36320;48.860;2.380;2022-07-23T06:16:15;16.97;;;5.20;;
4208;SDS011;36320;48.860;2.380;2022-07-23T06:18:41;17.00;;;5.15;;
4208;SDS011;36320;48.860;2.380;2022-07-23T06:21:07;23.02;;;5.65;;
4208;SDS011;36320;48.860;2.380;2022-07-23T06:23:33;20.10;;;5.80;;
4208;SDS011;36320;48.860;2.380;2022-07-23T06:25:59;18.95;;;5.78;;
4208;SDS011;36320;48.860;2.380;2022-07-23T06:28:24;23.30;;;6.57;;
4208;SDS011;36320;48.860;2.380;2022-07-23T06:30:50;29.25;;;7.07;;
4208;SDS011;36320;48.860;2.380;2022-07-23T06:33:16;20.63;;;6.90;;
4208;SDS011;36320;48.860;2.380;2022-07-23T06:35:41;20.77;;;6.87;;
4208;SDS011;36320;48.860;2.380;2022-07-23T06:38:07;21.50;;;6.83;;
4208;SDS011;36320;48.860;2.380;2022-07-23T06:40:32;22.57;;;7.70;;
4208;SDS011;36320;48.860;2.380;2022-07-23T06:42:58;19.23;;;6.90;;
4208;SDS011;36320;48.860;2.380;2022-07-23T06:45:24;23.30;;;7.15;;
4208;SDS011;36320;48.860;2.380;2022-07-23T06:47:50;23.52;;;7.25;;
4208;SDS011;36320;48.860;2.380;2022-07-23T06:50:16;24.70;;;8.40;;
4208;SDS011;36320;48.860;2.380;2022-07-23T06:52:42;25.70;;;7.35;;
4208;SDS011;36320;48.860;2.380;2022-07-23T06:55:08;20.55;;;7.10;;
4208;SDS011;36320;48.860;2.380;2022-07-23T06:57:34;22.10;;;7.23;;
4208;SDS011;36320;48.860;2.380;2022-07-23T06:59:59;24.25;;;7.50;;
4208;SDS011;36320;48.860;2.380;2022-07-23T07:02:25;30.38;;;8.75;;
4208;SDS011;36320;48.860;2.380;2022-07-23T07:04:51;27.45;;;8.18;;
4208;SDS011;36320;48.860;2.380;2022-07-23T07:07:18;23.48;;;8.23;;
4208;SDS011;36320;48.860;2.380;2022-07-23T07:09:43;24.93;;;8.23;;
4208;SDS011;36320;48.860;2.380;2022-07-23T07:12:09;26.88;;;8.57;;
4208;SDS011;36320;48.860;2.380;2022-07-23T07:14:37;25.15;;;8.85;;
4208;SDS011;36320;48.860;2.380;2022-07-23T07:17:02;24.55;;;8.75;;
4208;SDS011;36320;48.860;2.380;2022-07-23T07:19:28;32.00;;;9.10;;
4208;SDS011;36320;48.860;2.380;2022-07-23T07:21:54;23.10;;;8.10;;
4208;SDS011;36320;48.860;2.380;2022-07-23T07:24:20;29.92;;;8.40;;
4208;SDS011;36320;48.860;2.380;2022-07-23T07:26:47;27.30;;;9.60;;
4208;SDS011;36320;48.860;2.380;2022-07-23T07:29:12;24.20;;;8.00;;
4208;SDS011;36320;48.860;2.380;2022-07-23T07:31:38;23.00;;;7.93;;
4208;SDS011;36320;48.860;2.380;2022-07-23T07:34:04;33.67;;;9.80;;
4208;SDS011;36320;48.860;2.380;2022-07-23T07:36:29;29.27;;;8.27;;
4208;SDS011;36320;48.860;2.380;2022-07-23T07:38:55;26.30;;;7.90;;
4208;SDS011;36320;48.860;2.380;2022-07-23T07:41:21;22.67;;;8.23;;
4208;SDS011;36320;48.860;2.380;2022-07-23T07:43:49;30.52;;;9.30;;
4208;SDS011;36320;48.860;2.380;2022-07-23T07:46:15;27.67;;;9.30;;
4208;SDS011;36320;48.860;2.380;2022-07-23T07:48:41;24.33;;;8.75;;
4208;SDS011;36320;48.860;2.380;2022-07-23T07:51:07;25.00;;;9.13;;
4208;SDS011;36320;48.860;2.380;2022-07-23T07:53:33;31.30;;;9.57;;
4208;SDS011;36320;48.860;2.380;2022-07-23T07:55:58;31.60;;;10.00;;
4208;SDS011;36320;48.860;2.380;2022-07-23T07:58:24;28.38;;;9.38;;
4208;SDS011;36320;48.860;2.380;2022-07-23T08:00:51;28.95;;;10.10;;
4208;SDS011;36320;48.860;2.380;2022-07-23T08:03:17;23.85;;;8.73;;
4208;SDS011;36320;48.860;2.380;2022-07-23T08:05:43;30.95;;;8.88;;
4208;SDS011;36320;48.860;2.380;2022-07-23T08:08:09;30.33;;;8.82;;
4208;SDS011;36320;48.860;2.380;2022-07-23T08:10:40;30.65;;;9.55;;
4208;SDS011;36320;48.860;2.380;2022-07-23T08:13:05;27.95;;;9.85;;
4208;SDS011;36320;48.860;2.380;2022-07-23T08:15:31;32.33;;;9.25;;
4208;SDS011;36320;48.860;2.380;2022-07-23T08:17:57;35.25;;;11.07;;
4208;SDS011;36320;48.860;2.380;2022-07-23T08:20:23;28.93;;;9.20;;
4208;SDS011;36320;48.860;2.380;2022-07-23T08:25:44;38.57;;;10.63;;
4208;SDS011;36320;48.860;2.380;2022-07-23T08:28:10;26.88;;;9.73;;
4208;SDS011;36320;48.860;2.380;2022-07-23T08:30:37;34.20;;;10.50;;
4208;SDS011;36320;48.860;2.380;2022-07-23T08:35:48;40.28;;;9.68;;
4208;SDS011;36320;48.860;2.380;2022-07-23T08:38:17;32.72;;;9.13;;
4208;SDS011;36320;48.860;2.380;2022-07-23T08:40:46;27.60;;;8.80;;
4208;SDS011;36320;48.860;2.380;2022-07-23T08:43:16;27.33;;;9.25;;
4208;SDS011;36320;48.860;2.380;2022-07-23T08:45:45;27.85;;;8.55;;
4208;SDS011;36320;48.860;2.380;2022-07-23T08:48:19;33.70;;;8.85;;
4208;SDS011;36320;48.860;2.380;2022-07-23T08:50:51;32.80;;;9.23;;
4208;SDS011;36320;48.860;2.380;2022-07-23T08:53:21;22.50;;;7.90;;
4208;SDS011;36320;48.860;2.380;2022-07-23T08:55:49;26.40;;;8.83;;
4208;SDS011;36320;48.860;2.380;2022-07-23T08:58:17;27.73;;;8.85;;
4208;SDS011;36320;48.860;2.380;2022-07-23T09:00:45;27.65;;;8.80;;
4208;SDS011;36320;48.860;2.380;2022-07-23T09:03:15;33.10;;;9.10;;
4208;SDS011;36320;48.860;2.380;2022-07-23T09:05:47;30.87;;;9.50;;
4208;SDS011;36320;48.860;2.380;2022-07-23T09:08:18;29.83;;;9.07;;
4208;SDS011;36320;48.860;2.380;2022-07-23T09:15:57;28.20;;;9.10;;
4208;SDS011;36320;48.860;2.380;2022-07-23T09:19:00;34.30;;;8.10;;
4208;SDS011;36320;48.860;2.380;2022-07-23T09:21:34;28.70;;;9.10;;
4208;SDS011;36320;48.860;2.380;2022-07-23T09:24:02;23.23;;;8.25;;
4208;SDS011;36320;48.860;2.380;2022-07-23T09:26:41;30.70;;;9.52;;
4208;SDS011;36320;48.860;2.380;2022-07-23T09:36:58;26.30;;;7.93;;
4208;SDS011;36320;48.860;2.380;2022-07-23T09:39:40;27.70;;;8.00;;
4208;SDS011;36320;48.860;2.380;2022-07-23T09:42:20;22.08;;;7.80;;
4208;SDS011;36320;48.860;2.380;2022-07-23T09:44:52;27.67;;;7.80;;
4208;SDS011;36320;48.860;2.380;2022-07-23T09:47:20;23.23;;;8.05;;
4208;SDS011;36320;48.860;2.380;2022-07-23T09:50:00;27.25;;;8.73;;
4208;SDS011;36320;48.860;2.380;2022-07-23T09:52:30;23.85;;;7.40;;
4208;SDS011;36320;48.860;2.380;2022-07-23T09:54:58;27.30;;;8.00;;
4208;SDS011;36320;48.860;2.380;2022-07-23T09:57:25;24.40;;;8.70;;
4208;SDS011;36320;48.860;2.380;2022-07-23T09:59:51;40.03;;;9.38;;
4208;SDS011;36320;48.860;2.380;2022-07-23T10:02:22;30.15;;;8.43;;
4208;SDS011;36320;48.860;2.380;2022-07-23T10:04:49;25.10;;;8.97;;
4208;SDS011;36320;48.860;2.380;2022-07-23T10:07:18;25.38;;;8.20;;
4208;SDS011;36320;48.860;2.380;2022-07-23T10:09:49;23.13;;;8.10;;
4208;SDS011;36320;48.860;2.380;2022-07-23T10:12:17;28.52;;;7.70;;
4208;SDS011;36320;48.860;2.380;2022-07-23T10:15:04;33.88;;;8.40;;
4208;SDS011;36320;48.860;2.380;2022-07-23T10:17:32;26.88;;;8.23;;
4208;SDS011;36320;48.860;2.380;2022-07-23T10:19:58;26.95;;;10.23;;
4208;SDS011;36320;48.860;2.380;2022-07-23T10:22:27;23.87;;;7.27;;
4208;SDS011;36320;48.860;2.380;2022-07-23T10:25:12;26.47;;;7.63;;
4208;SDS011;36320;48.860;2.380;2022-07-23T10:41:32;23.50;;;8.02;;
4208;SDS011;36320;48.860;2.380;2022-07-23T10:44:10;18.60;;;7.05;;
4208;SDS011;36320;48.860;2.380;2022-07-23T10:49:29;29.20;;;7.53;;
4208;SDS011;36320;48.860;2.380;2022-07-23T10:52:15;24.93;;;7.30;;
4208;SDS011;36320;48.860;2.380;2022-07-23T10:57:26;18.90;;;6.85;;
4208;SDS011;36320;48.860;2.380;2022-07-23T11:02:37;20.10;;;7.50;;
4208;SDS011;36320;48.860;2.380;2022-07-23T11:05:05;22.80;;;7.68;;
4208;SDS011;36320;48.860;2.380;2022-07-23T11:07:33;17.70;;;6.50;;
4208;SDS011;36320;48.860;2.380;2022-07-23T11:10:00;24.48;;;7.43;;
4208;SDS011;36320;48.860;2.380;2022-07-23T11:17:36;20.02;;;6.55;;
4208;SDS011;36320;48.860;2.380;2022-07-23T11:22:38;19.30;;;6.53;;
4208;SDS011;36320;48.860;2.380;2022-07-23T11:25:06;20.27;;;6.80;;
4208;SDS011;36320;48.860;2.380;2022-07-23T11:27:38;18.40;;;6.65;;
4208;SDS011;36320;48.860;2.380;2022-07-23T11:30:10;20.85;;;6.85;;
4208;SDS011;36320;48.860;2.380;2022-07-23T11:35:37;17.20;;;5.40;;
4208;SDS011;36320;48.860;2.380;2022-07-23T11:38:11;17.60;;;5.88;;
4208;SDS011;36320;48.860;2.380;2022-07-23T11:40:39;15.05;;;5.80;;
4208;SDS011;36320;48.860;2.380;2022-07-23T11:43:09;16.58;;;5.55;;
4208;SDS011;36320;48.860;2.380;2022-07-23T11:45:38;18.13;;;6.25;;
4208;SDS011;36320;48.860;2.380;2022-07-23T11:48:14;16.63;;;5.60;;
4208;SDS011;36320;48.860;2.380;2022-07-23T11:50:42;20.30;;;6.45;;
4208;SDS011;36320;48.860;2.380;2022-07-23T11:53:08;19.00;;;6.18;;
4208;SDS011;36320;48.860;2.380;2022-07-23T11:55:33;22.17;;;6.20;;
4208;SDS011;36320;48.860;2.380;2022-07-23T11:57:59;22.10;;;6.43;;
4208;SDS011;36320;48.860;2.380;2022-07-23T12:00:26;20.90;;;6.33;;
4208;SDS011;36320;48.860;2.380;2022-07-23T12:02:56;14.88;;;5.50;;
4208;SDS011;36320;48.860;2.380;2022-07-23T12:05:28;18.15;;;5.78;;
4208;SDS011;36320;48.860;2.380;2022-07-23T12:07:56;17.52;;;6.28;;
4208;SDS011;36320;48.860;2.380;2022-07-23T12:10:24;26.65;;;6.28;;
4208;SDS011;36320;48.860;2.380;2022-07-23T12:12:56;16.00;;;5.90;;
4208;SDS011;36320;48.860;2.380;2022-07-23T12:15:34;15.30;;;4.90;;
4208;SDS011;36320;48.860;2.380;2022-07-23T12:18:08;15.52;;;5.60;;
4208;SDS011;36320;48.860;2.380;2022-07-23T12:20:40;17.50;;;6.33;;
4208;SDS011;36320;48.860;2.380;2022-07-23T12:23:11;21.35;;;6.20;;
4208;SDS011;36320;48.860;2.380;2022-07-23T12:25:39;17.45;;;5.60;;
4208;SDS011;36320;48.860;2.380;2022-07-23T12:28:08;19.02;;;7.00;;
4208;SDS011;36320;48.860;2.380;2022-07-23T12:30:43;21.98;;;6.63;;
4208;SDS011;36320;48.860;2.380;2022-07-23T12:33:15;18.08;;;6.22;;
4208;SDS011;36320;48.860;2.380;2022-07-23T12:35:48;16.05;;;5.60;;
4208;SDS011;36320;48.860;2.380;2022-07-23T12:38:15;17.95;;;6.10;;
4208;SDS011;36320;48.860;2.380;2022-07-23T12:41:01;20.80;;;6.03;;
4208;SDS011;36320;48.860;2.380;2022-07-23T12:43:35;16.40;;;5.88;;
4208;SDS011;36320;48.860;2.380;2022-07-23T12:46:06;16.30;;;6.18;;
4208;SDS011;36320;48.860;2.380;2022-07-23T12:51:21;22.42;;;6.55;;
4208;SDS011;36320;48.860;2.380;2022-07-23T12:53:51;19.85;;;6.70;;
4208;SDS011;36320;48.860;2.380;2022-07-23T12:58:48;18.90;;;6.00;;
4208;SDS011;36320;48.860;2.380;2022-07-23T13:07:18;15.43;;;4.82;;
4208;SDS011;36320;48.860;2.380;2022-07-23T13:09:29;16.92;;;6.30;;
4208;SDS011;36320;48.860;2.380;2022-07-23T13:11:57;17.92;;;6.07;;
4208;SDS011;36320;48.860;2.380;2022-07-23T13:14:23;18.15;;;5.45;;
4208;SDS011;36320;48.860;2.380;2022-07-23T13:16:51;17.15;;;6.25;;
4208;SDS011;36320;48.860;2.380;2022-07-23T13:19:18;17.73;;;5.70;;
4208;SDS011;36320;48.860;2.380;2022-07-23T13:21:45;19.65;;;5.57;;
4208;SDS011;36320;48.860;2.380;2022-07-23T13:24:11;23.60;;;6.70;;
4208;SDS011;36320;48.860;2.380;2022-07-23T13:26:37;20.25;;;5.57;;
4208;SDS011;36320;48.860;2.380;2022-07-23T13:29:04;19.83;;;6.43;;
4208;SDS011;36320;48.860;2.380;2022-07-23T13:31:30;16.15;;;5.88;;
4208;SDS011;36320;48.860;2.380;2022-07-23T13:33:56;17.52;;;5.68;;
4208;SDS011;36320;48.860;2.380;2022-07-23T13:36:22;17.57;;;6.30;;
4208;SDS011;36320;48.860;2.380;2022-07-23T13:38:47;17.43;;;6.40;;
4208;SDS011;36320;48.860;2.380;2022-07-23T13:41:13;15.30;;;5.30;;
4208;SDS011;36320;48.860;2.380;2022-07-23T13:43:41;20.13;;;6.68;;
4208;SDS011;36320;48.860;2.380;2022-07-23T13:46:07;17.40;;;5.40;;
4208;SDS011;36320;48.860;2.380;2022-07-23T13:48:33;18.98;;;5.20;;
4208;SDS011;36320;48.860;2.380;2022-07-23T13:50:59;16.60;;;5.30;;
4208;SDS011;36320;48.860;2.380;2022-07-23T13:53:25;15.33;;;5.50;;
4208;SDS011;36320;48.860;2.380;2022-07-23T13:55:52;20.65;;;6.20;;
4208;SDS011;36320;48.860;2.380;2022-07-23T13:58:19;18.73;;;6.10;;
4208;SDS011;36320;48.860;2.380;2022-07-23T14:00:46;18.88;;;5.75;;
4208;SDS011;36320;48.860;2.380;2022-07-23T14:03:15;15.93;;;5.80;;
4208;SDS011;36320;48.860;2.380;2022-07-23T14:05:43;17.05;;;6.00;;
4208;SDS011;36320;48.860;2.380;2022-07-23T14:08:09;15.98;;;6.20;;
4208;SDS011;36320;48.860;2.380;2022-07-23T14:10:37;21.67;;;6.28;;
4208;SDS011;36320;48.860;2.380;2022-07-23T14:13:03;19.05;;;5.03;;
4208;SDS011;36320;48.860;2.380;2022-07-23T14:15:29;14.00;;;5.00;;
4208;SDS011;36320;48.860;2.380;2022-07-23T14:17:56;15.27;;;4.70;;
4208;SDS011;36320;48.860;2.380;2022-07-23T14:20:23;16.67;;;5.00;;
4208;SDS011;36320;48.860;2.380;2022-07-23T14:22:50;14.05;;;5.40;;
4208;SDS011;36320;48.860;2.380;2022-07-23T14:25:16;16.42;;;5.97;;
4208;SDS011;36320;48.860;2.380;2022-07-23T14:27:44;18.70;;;6.18;;
4208;SDS011;36320;48.860;2.380;2022-07-23T14:30:11;16.60;;;5.43;;
4208;SDS011;36320;48.860;2.380;2022-07-23T14:32:37;13.52;;;4.50;;
4208;SDS011;36320;48.860;2.380;2022-07-23T14:35:04;17.33;;;5.00;;
4208;SDS011;36320;48.860;2.380;2022-07-23T14:37:31;13.32;;;4.50;;
4208;SDS011;36320;48.860;2.380;2022-07-23T14:39:56;15.43;;;4.50;;
4208;SDS011;36320;48.860;2.380;2022-07-23T14:42:22;13.00;;;4.18;;
4208;SDS011;36320;48.860;2.380;2022-07-23T14:44:48;16.63;;;5.20;;
4208;SDS011;36320;48.860;2.380;2022-07-23T14:47:14;12.40;;;3.85;;
4208;SDS011;36320;48.860;2.380;2022-07-23T14:49:40;12.40;;;4.00;;
4208;SDS011;36320;48.860;2.380;2022-07-23T14:52:06;11.00;;;4.10;;
4208;SDS011;36320;48.860;2.380;2022-07-23T14:54:33;18.42;;;5.00;;
4208;SDS011;36320;48.860;2.380;2022-07-23T14:57:01;13.25;;;4.50;;
4208;SDS011;36320;48.860;2.380;2022-07-23T14:59:27;15.40;;;4.80;;
4208;SDS011;36320;48.860;2.380;2022-07-23T15:01:55;13.93;;;4.50;;
4208;SDS011;36320;48.860;2.380;2022-07-23T15:04:21;13.85;;;5.10;;
4208;SDS011;36320;48.860;2.380;2022-07-23T15:06:47;11.95;;;3.80;;
4208;SDS011;36320;48.860;2.380;2022-07-23T15:09:13;12.10;;;4.20;;
4208;SDS011;36320;48.860;2.380;2022-07-23T15:11:39;13.57;;;4.90;;
4208;SDS011;36320;48.860;2.380;2022-07-23T15:14:05;13.10;;;4.30;;
4208;SDS011;36320;48.860;2.380;2022-07-23T15:16:31;12.90;;;4.43;;
4208;SDS011;36320;48.860;2.380;2022-07-23T15:18:57;16.10;;;4.10;;
4208;SDS011;36320;48.860;2.380;2022-07-23T15:21:23;14.70;;;4.50;;
4208;SDS011;36320;48.860;2.380;2022-07-23T15:23:49;12.80;;;4.35;;
4208;SDS011;36320;48.860;2.380;2022-07-23T15:26:14;13.85;;;4.82;;
4208;SDS011;36320;48.860;2.380;2022-07-23T15:28:40;12.20;;;3.50;;
4208;SDS011;36320;48.860;2.380;2022-07-23T15:31:07;8.90;;;3.20;;
4208;SDS011;36320;48.860;2.380;2022-07-23T15:33:33;8.13;;;3.20;;
4208;SDS011;36320;48.860;2.380;2022-07-23T15:36:00;10.15;;;3.38;;
4208;SDS011;36320;48.860;2.380;2022-07-23T15:38:26;8.83;;;3.10;;
4208;SDS011;36320;48.860;2.380;2022-07-23T15:40:55;6.38;;;2.80;;
4208;SDS011;36320;48.860;2.380;2022-07-23T15:43:22;7.18;;;2.80;;
4208;SDS011;36320;48.860;2.380;2022-07-23T15:45:50;6.20;;;2.78;;
4208;SDS011;36320;48.860;2.380;2022-07-23T15:48:17;9.57;;;2.97;;
4208;SDS011;36320;48.860;2.380;2022-07-23T15:50:43;9.15;;;2.60;;